sensor_id;sensor_type;location;lat;lon;timestamp;P1;durP1;ratioP1;P2;durP2;ratioP2
45392;SDS011;31129;44.810;10.334;2023-08-31T00:02:06;3.92;;;0.80;;
45392;SDS011;31129;44.810;10.334;2023-08-31T00:04:32;2.47;;;1.42;;
45392;SDS011;31129;44.810;10.334;2023-08-31T00:06:57;1.83;;;0.65;;
45392;SDS011;31129;44.810;10.334;2023-08-31T00:09:23;3.45;;;1.20;;
45392;SDS011;31129;44.810;10.334;2023-08-31T00:11:49;3.75;;;0.95;;
45392;SDS011;31129;44.810;10.334;2023-08-31T00:14:15;2.72;;;0.85;;
45392;SDS011;31129;44.810;10.334;2023-08-31T00:16:41;1.25;;;0.85;;
45392;SDS011;31129;44.810;10.334;2023-08-31T00:19:06;2.58;;;1.13;;
45392;SDS011;31129;44.810;10.334;2023-08-31T00:21:32;2.05;;;1.00;;
45392;SDS011;31129;44.810;10.334;2023-08-31T00:23:58;2.10;;;1.00;;
45392;SDS011;31129;44.810;10.334;2023-08-31T00:26:24;7.70;;;1.00;;
45392;SDS011;31129;44.810;10.334;2023-08-31T00:28:51;1.25;;;0.95;;
45392;SDS011;31129;44.810;10.334;2023-08-31T00:31:17;1.95;;;1.13;;
45392;SDS011;31129;44.810;10.334;2023-08-31T00:33:42;2.28;;;0.98;;
45392;SDS011;31129;44.810;10.334;2023-08-31T00:36:08;2.65;;;0.93;;
45392;SDS011;31129;44.810;10.334;2023-08-31T00:38:34;6.22;;;1.25;;
45392;SDS011;31129;44.810;10.334;2023-08-31T00:40:59;4.40;;;1.20;;
45392;SDS011;31129;44.810;10.334;2023-08-31T00:43:25;2.40;;;0.80;;
45392;SDS011;31129;44.810;10.334;2023-08-31T00:45:53;2.72;;;1.00;;
45392;SDS011;31129;44.810;10.334;2023-08-31T00:48:24;3.97;;;1.13;;
45392;SDS011;31129;44.810;10.334;2023-08-31T00:50:50;2.92;;;0.80;;
45392;SDS011;31129;44.810;10.334;2023-08-31T00:53:16;1.95;;;0.90;;
45392;SDS011;31129;44.810;10.334;2023-08-31T00:55:45;2.10;;;1.02;;
45392;SDS011;31129;44.810;10.334;2023-08-31T00:58:11;2.03;;;0.90;;
45392;SDS011;31129;44.810;10.334;2023-08-31T01:00:47;1.95;;;0.82;;
45392;SDS011;31129;44.810;10.334;2023-08-31T01:03:31;6.00;;;1.05;;
45392;SDS011;31129;44.810;10.334;2023-08-31T01:06:07;2.28;;;0.80;;
45392;SDS011;31129;44.810;10.334;2023-08-31T01:14:05;4.90;;;1.10;;
45392;SDS011;31129;44.810;10.334;2023-08-31T01:16:42;3.28;;;1.02;;
45392;SDS011;31129;44.810;10.334;2023-08-31T01:19:57;3.28;;;1.20;;
45392;SDS011;31129;44.810;10.334;2023-08-31T01:22:38;3.67;;;1.40;;
45392;SDS011;31129;44.810;10.334;2023-08-31T01:25:08;2.78;;;0.90;;
45392;SDS011;31129;44.810;10.334;2023-08-31T01:27:35;3.53;;;0.90;;
45392;SDS011;31129;44.810;10.334;2023-08-31T01:30:03;3.67;;;1.05;;
45392;SDS011;31129;44.810;10.334;2023-08-31T01:32:29;5.43;;;0.80;;
45392;SDS011;31129;44.810;10.334;2023-08-31T01:34:55;4.40;;;1.00;;
45392;SDS011;31129;44.810;10.334;2023-08-31T01:42:45;3.47;;;1.20;;
45392;SDS011;31129;44.810;10.334;2023-08-31T01:45:24;2.88;;;1.23;;
45392;SDS011;31129;44.810;10.334;2023-08-31T01:47:51;2.78;;;0.80;;
45392;SDS011;31129;44.810;10.334;2023-08-31T01:50:17;3.55;;;0.93;;
45392;SDS011;31129;44.810;10.334;2023-08-31T01:52:43;3.00;;;0.80;;
45392;SDS011;31129;44.810;10.334;2023-08-31T01:55:08;3.30;;;0.90;;
45392;SDS011;31129;44.810;10.334;2023-08-31T01:57:34;7.65;;;0.90;;
45392;SDS011;31129;44.810;10.334;2023-08-31T02:00:09;4.47;;;1.35;;
45392;SDS011;31129;44.810;10.334;2023-08-31T02:02:41;3.80;;;1.00;;
45392;SDS011;31129;44.810;10.334;2023-08-31T02:05:07;3.30;;;1.23;;
45392;SDS011;31129;44.810;10.334;2023-08-31T02:07:33;4.63;;;1.30;;
45392;SDS011;31129;44.810;10.334;2023-08-31T02:10:00;2.63;;;1.20;;
45392;SDS011;31129;44.810;10.334;2023-08-31T02:12:26;3.80;;;1.10;;
45392;SDS011;31129;44.810;10.334;2023-08-31T02:14:51;2.60;;;1.08;;
45392;SDS011;31129;44.810;10.334;2023-08-31T02:17:17;1.65;;;1.20;;
45392;SDS011;31129;44.810;10.334;2023-08-31T02:19:42;5.05;;;1.13;;
45392;SDS011;31129;44.810;10.334;2023-08-31T02:22:08;2.25;;;1.33;;
45392;SDS011;31129;44.810;10.334;2023-08-31T02:24:34;4.50;;;1.40;;
45392;SDS011;31129;44.810;10.334;2023-08-31T02:26:59;1.73;;;1.17;;
45392;SDS011;31129;44.810;10.334;2023-08-31T02:29:25;6.35;;;1.40;;
45392;SDS011;31129;44.810;10.334;2023-08-31T02:31:51;7.68;;;1.10;;
45392;SDS011;31129;44.810;10.334;2023-08-31T02:34:16;4.25;;;1.15;;
45392;SDS011;31129;44.810;10.334;2023-08-31T02:36:42;3.70;;;1.30;;
45392;SDS011;31129;44.810;10.334;2023-08-31T02:39:09;1.97;;;1.23;;
45392;SDS011;31129;44.810;10.334;2023-08-31T02:41:35;3.63;;;1.13;;
45392;SDS011;31129;44.810;10.334;2023-08-31T02:44:03;3.83;;;1.17;;
45392;SDS011;31129;44.810;10.334;2023-08-31T02:46:29;4.68;;;1.20;;
45392;SDS011;31129;44.810;10.334;2023-08-31T02:48:54;3.65;;;1.20;;
45392;SDS011;31129;44.810;10.334;2023-08-31T02:51:20;3.03;;;1.33;;
45392;SDS011;31129;44.810;10.334;2023-08-31T02:53:45;6.85;;;1.25;;
45392;SDS011;31129;44.810;10.334;2023-08-31T02:56:11;2.25;;;1.25;;
45392;SDS011;31129;44.810;10.334;2023-08-31T02:58:37;3.28;;;1.20;;
45392;SDS011;31129;44.810;10.334;2023-08-31T03:01:09;2.33;;;1.48;;
45392;SDS011;31129;44.810;10.334;2023-08-31T03:03:43;3.45;;;1.30;;
45392;SDS011;31129;44.810;10.334;2023-08-31T03:06:10;5.30;;;1.20;;
45392;SDS011;31129;44.810;10.334;2023-08-31T03:08:36;2.10;;;1.10;;
45392;SDS011;31129;44.810;10.334;2023-08-31T03:11:02;1.77;;;1.10;;
45392;SDS011;31129;44.810;10.334;2023-08-31T03:13:28;4.05;;;1.05;;
45392;SDS011;31129;44.810;10.334;2023-08-31T03:15:54;0.85;;;0.85;;
45392;SDS011;31129;44.810;10.334;2023-08-31T03:18:23;3.72;;;1.10;;
45392;SDS011;31129;44.810;10.334;2023-08-31T03:20:49;3.80;;;0.95;;
45392;SDS011;31129;44.810;10.334;2023-08-31T03:23:15;2.05;;;1.00;;
45392;SDS011;31129;44.810;10.334;2023-08-31T03:25:40;3.50;;;1.00;;
45392;SDS011;31129;44.810;10.334;2023-08-31T03:28:09;3.35;;;1.13;;
45392;SDS011;31129;44.810;10.334;2023-08-31T03:30:37;5.07;;;1.35;;
45392;SDS011;31129;44.810;10.334;2023-08-31T03:33:03;5.10;;;1.45;;
45392;SDS011;31129;44.810;10.334;2023-08-31T03:35:29;2.13;;;0.90;;
45392;SDS011;31129;44.810;10.334;2023-08-31T03:37:57;1.45;;;1.00;;
45392;SDS011;31129;44.810;10.334;2023-08-31T03:40:23;4.57;;;1.05;;
45392;SDS011;31129;44.810;10.334;2023-08-31T03:42:50;1.50;;;0.80;;
45392;SDS011;31129;44.810;10.334;2023-08-31T03:45:15;5.03;;;1.00;;
45392;SDS011;31129;44.810;10.334;2023-08-31T03:47:41;3.78;;;1.10;;
45392;SDS011;31129;44.810;10.334;2023-08-31T03:50:07;2.22;;;1.27;;
45392;SDS011;31129;44.810;10.334;2023-08-31T03:52:36;4.15;;;1.00;;
45392;SDS011;31129;44.810;10.334;2023-08-31T03:55:01;3.83;;;1.00;;
45392;SDS011;31129;44.810;10.334;2023-08-31T03:57:27;3.50;;;1.05;;
45392;SDS011;31129;44.810;10.334;2023-08-31T03:59:57;3.45;;;0.93;;
45392;SDS011;31129;44.810;10.334;2023-08-31T04:02:23;2.17;;;1.00;;
45392;SDS011;31129;44.810;10.334;2023-08-31T04:04:49;1.45;;;0.90;;
45392;SDS011;31129;44.810;10.334;2023-08-31T04:07:15;5.25;;;1.20;;
45392;SDS011;31129;44.810;10.334;2023-08-31T04:09:41;2.85;;;1.27;;
45392;SDS011;31129;44.810;10.334;2023-08-31T04:12:06;4.40;;;0.85;;
45392;SDS011;31129;44.810;10.334;2023-08-31T04:14:32;5.38;;;1.15;;
45392;SDS011;31129;44.810;10.334;2023-08-31T04:16:58;4.15;;;1.27;;
45392;SDS011;31129;44.810;10.334;2023-08-31T04:19:23;3.13;;;1.20;;
45392;SDS011;31129;44.810;10.334;2023-08-31T04:21:49;5.15;;;1.15;;
45392;SDS011;31129;44.810;10.334;2023-08-31T04:24:17;3.42;;;0.90;;
45392;SDS011;31129;44.810;10.334;2023-08-31T04:26:46;2.15;;;1.00;;
45392;SDS011;31129;44.810;10.334;2023-08-31T04:29:14;5.07;;;1.45;;
45392;SDS011;31129;44.810;10.334;2023-08-31T04:31:39;5.00;;;1.00;;
45392;SDS011;31129;44.810;10.334;2023-08-31T04:34:05;4.32;;;1.17;;
45392;SDS011;31129;44.810;10.334;2023-08-31T04:36:32;1.73;;;0.90;;
45392;SDS011;31129;44.810;10.334;2023-08-31T04:38:58;6.35;;;1.00;;
45392;SDS011;31129;44.810;10.334;2023-08-31T04:41:23;5.85;;;1.40;;
45392;SDS011;31129;44.810;10.334;2023-08-31T04:43:49;6.03;;;1.27;;
45392;SDS011;31129;44.810;10.334;2023-08-31T04:46:15;5.72;;;1.17;;
45392;SDS011;31129;44.810;10.334;2023-08-31T04:48:43;4.07;;;1.17;;
45392;SDS011;31129;44.810;10.334;2023-08-31T04:51:09;2.95;;;1.27;;
45392;SDS011;31129;44.810;10.334;2023-08-31T04:53:52;3.38;;;1.33;;
45392;SDS011;31129;44.810;10.334;2023-08-31T04:56:18;5.57;;;1.83;;
45392;SDS011;31129;44.810;10.334;2023-08-31T04:58:43;2.38;;;1.50;;
45392;SDS011;31129;44.810;10.334;2023-08-31T05:01:09;6.22;;;1.23;;
45392;SDS011;31129;44.810;10.334;2023-08-31T05:03:34;4.65;;;1.23;;
45392;SDS011;31129;44.810;10.334;2023-08-31T05:06:00;4.38;;;1.30;;
45392;SDS011;31129;44.810;10.334;2023-08-31T05:08:25;3.38;;;1.13;;
45392;SDS011;31129;44.810;10.334;2023-08-31T05:10:51;4.88;;;1.45;;
45392;SDS011;31129;44.810;10.334;2023-08-31T05:13:16;2.80;;;1.30;;
45392;SDS011;31129;44.810;10.334;2023-08-31T05:15:42;8.25;;;1.83;;
45392;SDS011;31129;44.810;10.334;2023-08-31T05:18:08;4.22;;;1.83;;
45392;SDS011;31129;44.810;10.334;2023-08-31T05:20:34;5.40;;;1.75;;
45392;SDS011;31129;44.810;10.334;2023-08-31T05:23:02;5.63;;;1.42;;
45392;SDS011;31129;44.810;10.334;2023-08-31T05:25:28;2.97;;;1.52;;
45392;SDS011;31129;44.810;10.334;2023-08-31T05:27:54;8.98;;;1.98;;
45392;SDS011;31129;44.810;10.334;2023-08-31T05:30:19;4.72;;;1.80;;
45392;SDS011;31129;44.810;10.334;2023-08-31T05:32:45;7.75;;;1.75;;
45392;SDS011;31129;44.810;10.334;2023-08-31T05:35:10;5.15;;;1.58;;
45392;SDS011;31129;44.810;10.334;2023-08-31T05:37:39;4.85;;;1.95;;
45392;SDS011;31129;44.810;10.334;2023-08-31T05:40:05;8.07;;;1.70;;
45392;SDS011;31129;44.810;10.334;2023-08-31T05:42:32;5.03;;;1.92;;
45392;SDS011;31129;44.810;10.334;2023-08-31T05:44:58;4.80;;;1.52;;
45392;SDS011;31129;44.810;10.334;2023-08-31T05:47:23;5.72;;;1.77;;
45392;SDS011;31129;44.810;10.334;2023-08-31T05:49:49;8.10;;;1.75;;
45392;SDS011;31129;44.810;10.334;2023-08-31T05:52:14;8.77;;;1.73;;
45392;SDS011;31129;44.810;10.334;2023-08-31T05:54:40;13.80;;;2.28;;
45392;SDS011;31129;44.810;10.334;2023-08-31T05:57:05;9.23;;;2.28;;
45392;SDS011;31129;44.810;10.334;2023-08-31T05:59:31;9.30;;;3.33;;
45392;SDS011;31129;44.810;10.334;2023-08-31T06:01:56;6.88;;;3.35;;
45392;SDS011;31129;44.810;10.334;2023-08-31T06:04:22;10.18;;;2.05;;
45392;SDS011;31129;44.810;10.334;2023-08-31T06:06:47;4.03;;;1.70;;
45392;SDS011;31129;44.810;10.334;2023-08-31T06:09:13;5.95;;;1.70;;
45392;SDS011;31129;44.810;10.334;2023-08-31T06:11:39;12.98;;;2.50;;
45392;SDS011;31129;44.810;10.334;2023-08-31T06:14:05;5.18;;;1.98;;
45392;SDS011;31129;44.810;10.334;2023-08-31T06:16:31;7.20;;;2.03;;
45392;SDS011;31129;44.810;10.334;2023-08-31T06:18:56;6.07;;;2.03;;
45392;SDS011;31129;44.810;10.334;2023-08-31T06:21:22;9.82;;;2.63;;
45392;SDS011;31129;44.810;10.334;2023-08-31T06:23:47;12.52;;;2.55;;
45392;SDS011;31129;44.810;10.334;2023-08-31T06:26:13;8.57;;;2.08;;
45392;SDS011;31129;44.810;10.334;2023-08-31T06:28:38;16.77;;;2.70;;
45392;SDS011;31129;44.810;10.334;2023-08-31T06:31:04;9.05;;;2.50;;
45392;SDS011;31129;44.810;10.334;2023-08-31T06:33:29;7.38;;;2.20;;
45392;SDS011;31129;44.810;10.334;2023-08-31T06:35:55;7.70;;;2.67;;
45392;SDS011;31129;44.810;10.334;2023-08-31T06:38:20;9.05;;;2.75;;
45392;SDS011;31129;44.810;10.334;2023-08-31T06:40:46;14.00;;;2.35;;
45392;SDS011;31129;44.810;10.334;2023-08-31T06:43:12;7.90;;;2.78;;
45392;SDS011;31129;44.810;10.334;2023-08-31T06:45:38;10.98;;;2.75;;
45392;SDS011;31129;44.810;10.334;2023-08-31T06:48:03;8.73;;;2.05;;
45392;SDS011;31129;44.810;10.334;2023-08-31T06:50:29;8.27;;;2.22;;
45392;SDS011;31129;44.810;10.334;2023-08-31T06:52:55;9.43;;;2.65;;
45392;SDS011;31129;44.810;10.334;2023-08-31T06:55:21;11.77;;;2.42;;
45392;SDS011;31129;44.810;10.334;2023-08-31T06:57:46;14.48;;;2.70;;
45392;SDS011;31129;44.810;10.334;2023-08-31T07:00:14;12.73;;;2.97;;
45392;SDS011;31129;44.810;10.334;2023-08-31T07:02:40;8.23;;;2.33;;
45392;SDS011;31129;44.810;10.334;2023-08-31T07:05:07;5.63;;;2.20;;
45392;SDS011;31129;44.810;10.334;2023-08-31T07:07:36;6.93;;;2.03;;
45392;SDS011;31129;44.810;10.334;2023-08-31T07:10:02;9.77;;;2.03;;
45392;SDS011;31129;44.810;10.334;2023-08-31T07:12:31;4.88;;;1.88;;
45392;SDS011;31129;44.810;10.334;2023-08-31T07:14:57;9.55;;;2.60;;
45392;SDS011;31129;44.810;10.334;2023-08-31T07:17:22;6.25;;;1.83;;
45392;SDS011;31129;44.810;10.334;2023-08-31T07:19:48;5.10;;;1.60;;
45392;SDS011;31129;44.810;10.334;2023-08-31T07:22:13;6.38;;;1.90;;
45392;SDS011;31129;44.810;10.334;2023-08-31T07:24:39;3.67;;;1.83;;
45392;SDS011;31129;44.810;10.334;2023-08-31T07:27:04;3.97;;;1.90;;
45392;SDS011;31129;44.810;10.334;2023-08-31T07:29:30;4.05;;;2.10;;
45392;SDS011;31129;44.810;10.334;2023-08-31T07:31:56;3.35;;;1.70;;
45392;SDS011;31129;44.810;10.334;2023-08-31T07:34:23;6.25;;;1.63;;
45392;SDS011;31129;44.810;10.334;2023-08-31T07:36:48;4.68;;;2.70;;
45392;SDS011;31129;44.810;10.334;2023-08-31T07:39:14;5.07;;;1.65;;
45392;SDS011;31129;44.810;10.334;2023-08-31T07:41:45;8.98;;;2.28;;
45392;SDS011;31129;44.810;10.334;2023-08-31T07:44:11;5.93;;;2.35;;
45392;SDS011;31129;44.810;10.334;2023-08-31T07:46:36;12.43;;;2.13;;
45392;SDS011;31129;44.810;10.334;2023-08-31T07:49:02;5.65;;;2.10;;
45392;SDS011;31129;44.810;10.334;2023-08-31T07:51:32;6.55;;;2.00;;
45392;SDS011;31129;44.810;10.334;2023-08-31T07:53:59;15.13;;;2.10;;
45392;SDS011;31129;44.810;10.334;2023-08-31T07:56:25;6.75;;;2.15;;
45392;SDS011;31129;44.810;10.334;2023-08-31T07:58:50;15.25;;;2.83;;
45392;SDS011;31129;44.810;10.334;2023-08-31T08:01:16;11.40;;;2.38;;
45392;SDS011;31129;44.810;10.334;2023-08-31T08:03:41;14.75;;;3.00;;
45392;SDS011;31129;44.810;10.334;2023-08-31T08:06:06;17.55;;;2.95;;
45392;SDS011;31129;44.810;10.334;2023-08-31T08:08:32;17.13;;;2.95;;
45392;SDS011;31129;44.810;10.334;2023-08-31T08:10:58;10.32;;;2.80;;
45392;SDS011;31129;44.810;10.334;2023-08-31T08:13:24;12.57;;;2.60;;
45392;SDS011;31129;44.810;10.334;2023-08-31T08:15:50;9.40;;;2.10;;
45392;SDS011;31129;44.810;10.334;2023-08-31T08:18:15;3.60;;;1.80;;
45392;SDS011;31129;44.810;10.334;2023-08-31T08:20:41;5.63;;;1.80;;
45392;SDS011;31129;44.810;10.334;2023-08-31T08:23:07;3.55;;;1.90;;
45392;SDS011;31129;44.810;10.334;2023-08-31T08:25:32;5.90;;;2.13;;
45392;SDS011;31129;44.810;10.334;2023-08-31T08:27:58;8.15;;;2.58;;
45392;SDS011;31129;44.810;10.334;2023-08-31T08:30:24;8.15;;;3.22;;
45392;SDS011;31129;44.810;10.334;2023-08-31T08:32:49;4.15;;;3.00;;
45392;SDS011;31129;44.810;10.334;2023-08-31T08:35:15;6.55;;;3.17;;
45392;SDS011;31129;44.810;10.334;2023-08-31T08:37:40;4.90;;;3.38;;
45392;SDS011;31129;44.810;10.334;2023-08-31T08:40:06;6.55;;;3.08;;
45392;SDS011;31129;44.810;10.334;2023-08-31T08:42:37;9.38;;;3.35;;
45392;SDS011;31129;44.810;10.334;2023-08-31T08:45:07;9.35;;;3.65;;
45392;SDS011;31129;44.810;10.334;2023-08-31T08:47:35;6.65;;;4.00;;
45392;SDS011;31129;44.810;10.334;2023-08-31T08:50:01;9.30;;;4.28;;
45392;SDS011;31129;44.810;10.334;2023-08-31T08:52:28;6.25;;;3.83;;
45392;SDS011;31129;44.810;10.334;2023-08-31T08:54:53;6.25;;;3.15;;
45392;SDS011;31129;44.810;10.334;2023-08-31T08:57:19;8.52;;;3.35;;
45392;SDS011;31129;44.810;10.334;2023-08-31T08:59:45;7.15;;;3.15;;
45392;SDS011;31129;44.810;10.334;2023-08-31T09:02:10;8.55;;;3.50;;
45392;SDS011;31129;44.810;10.334;2023-08-31T09:04:39;5.72;;;2.75;;
45392;SDS011;31129;44.810;10.334;2023-08-31T09:07:05;4.28;;;2.58;;
45392;SDS011;31129;44.810;10.334;2023-08-31T09:09:31;4.80;;;3.03;;
45392;SDS011;31129;44.810;10.334;2023-08-31T09:12:05;6.95;;;2.78;;
45392;SDS011;31129;44.810;10.334;2023-08-31T09:14:31;12.65;;;3.60;;
45392;SDS011;31129;44.810;10.334;2023-08-31T09:16:57;6.20;;;2.13;;
45392;SDS011;31129;44.810;10.334;2023-08-31T09:19:23;4.43;;;2.60;;
45392;SDS011;31129;44.810;10.334;2023-08-31T09:21:51;4.53;;;3.08;;
45392;SDS011;31129;44.810;10.334;2023-08-31T09:24:17;5.20;;;2.80;;
45392;SDS011;31129;44.810;10.334;2023-08-31T09:26:46;10.13;;;3.20;;
45392;SDS011;31129;44.810;10.334;2023-08-31T09:29:13;8.05;;;3.85;;
45392;SDS011;31129;44.810;10.334;2023-08-31T09:31:45;7.18;;;3.85;;
45392;SDS011;31129;44.810;10.334;2023-08-31T09:34:12;6.10;;;3.17;;
45392;SDS011;31129;44.810;10.334;2023-08-31T09:36:39;5.53;;;2.97;;
45392;SDS011;31129;44.810;10.334;2023-08-31T09:39:08;10.50;;;3.90;;
45392;SDS011;31129;44.810;10.334;2023-08-31T09:41:35;9.07;;;3.05;;
45392;SDS011;31129;44.810;10.334;2023-08-31T09:44:22;5.57;;;3.35;;
45392;SDS011;31129;44.810;10.334;2023-08-31T09:46:47;4.30;;;2.88;;
45392;SDS011;31129;44.810;10.334;2023-08-31T09:49:13;4.03;;;2.70;;
45392;SDS011;31129;44.810;10.334;2023-08-31T09:51:46;5.35;;;2.75;;
45392;SDS011;31129;44.810;10.334;2023-08-31T09:54:14;5.65;;;2.38;;
45392;SDS011;31129;44.810;10.334;2023-08-31T09:56:49;7.43;;;2.25;;
45392;SDS011;31129;44.810;10.334;2023-08-31T09:59:16;5.28;;;2.35;;
45392;SDS011;31129;44.810;10.334;2023-08-31T10:01:43;7.22;;;2.40;;
45392;SDS011;31129;44.810;10.334;2023-08-31T10:09:06;5.75;;;2.53;;
45392;SDS011;31129;44.810;10.334;2023-08-31T10:11:34;3.75;;;2.50;;
45392;SDS011;31129;44.810;10.334;2023-08-31T10:14:01;9.60;;;2.45;;
45392;SDS011;31129;44.810;10.334;2023-08-31T10:16:27;13.07;;;2.60;;
45392;SDS011;31129;44.810;10.334;2023-08-31T10:18:56;5.85;;;2.92;;
45392;SDS011;31129;44.810;10.334;2023-08-31T10:21:22;7.85;;;2.58;;
45392;SDS011;31129;44.810;10.334;2023-08-31T10:23:48;8.93;;;2.97;;
45392;SDS011;31129;44.810;10.334;2023-08-31T10:26:27;5.80;;;2.70;;
45392;SDS011;31129;44.810;10.334;2023-08-31T10:28:54;7.03;;;2.65;;
45392;SDS011;31129;44.810;10.334;2023-08-31T10:31:22;9.07;;;2.70;;
45392;SDS011;31129;44.810;10.334;2023-08-31T10:33:55;8.00;;;2.10;;
45392;SDS011;31129;44.810;10.334;2023-08-31T10:36:22;3.20;;;2.28;;
45392;SDS011;31129;44.810;10.334;2023-08-31T10:39:00;6.05;;;2.50;;
45392;SDS011;31129;44.810;10.334;2023-08-31T10:41:36;9.45;;;2.30;;
45392;SDS011;31129;44.810;10.334;2023-08-31T10:44:02;4.20;;;2.72;;
45392;SDS011;31129;44.810;10.334;2023-08-31T10:46:43;13.40;;;4.15;;
45392;SDS011;31129;44.810;10.334;2023-08-31T10:51:35;8.25;;;2.85;;
45392;SDS011;31129;44.810;10.334;2023-08-31T10:54:09;5.93;;;2.17;;
45392;SDS011;31129;44.810;10.334;2023-08-31T10:56:52;6.00;;;2.15;;
45392;SDS011;31129;44.810;10.334;2023-08-31T10:59:47;3.92;;;2.30;;
45392;SDS011;31129;44.810;10.334;2023-08-31T11:02:29;5.13;;;2.10;;
45392;SDS011;31129;44.810;10.334;2023-08-31T11:07:40;9.20;;;2.45;;
45392;SDS011;31129;44.810;10.334;2023-08-31T11:10:17;3.78;;;1.80;;
45392;SDS011;31129;44.810;10.334;2023-08-31T11:12:45;7.30;;;1.98;;
45392;SDS011;31129;44.810;10.334;2023-08-31T11:15:13;5.07;;;1.90;;
45392;SDS011;31129;44.810;10.334;2023-08-31T11:17:40;8.07;;;2.28;;
45392;SDS011;31129;44.810;10.334;2023-08-31T11:20:07;4.85;;;1.92;;
45392;SDS011;31129;44.810;10.334;2023-08-31T11:22:44;4.88;;;1.98;;
45392;SDS011;31129;44.810;10.334;2023-08-31T11:27:38;7.80;;;1.80;;
45392;SDS011;31129;44.810;10.334;2023-08-31T11:30:11;5.07;;;2.10;;
45392;SDS011;31129;44.810;10.334;2023-08-31T11:32:50;5.82;;;1.80;;
45392;SDS011;31129;44.810;10.334;2023-08-31T11:35:16;5.00;;;1.92;;
45392;SDS011;31129;44.810;10.334;2023-08-31T11:37:48;5.78;;;1.42;;
45392;SDS011;31129;44.810;10.334;2023-08-31T11:40:16;7.20;;;2.40;;
45392;SDS011;31129;44.810;10.334;2023-08-31T11:42:42;9.02;;;1.67;;
45392;SDS011;31129;44.810;10.334;2023-08-31T11:45:08;7.43;;;2.05;;
45392;SDS011;31129;44.810;10.334;2023-08-31T11:47:36;7.00;;;1.67;;
45392;SDS011;31129;44.810;10.334;2023-08-31T11:50:04;5.25;;;1.90;;
45392;SDS011;31129;44.810;10.334;2023-08-31T11:52:31;6.57;;;1.70;;
45392;SDS011;31129;44.810;10.334;2023-08-31T11:54:57;7.85;;;2.33;;
45392;SDS011;31129;44.810;10.334;2023-08-31T11:57:26;7.47;;;2.03;;
45392;SDS011;31129;44.810;10.334;2023-08-31T11:59:54;7.60;;;1.92;;
45392;SDS011;31129;44.810;10.334;2023-08-31T12:02:23;3.40;;;1.83;;
45392;SDS011;31129;44.810;10.334;2023-08-31T12:04:49;5.05;;;1.92;;
45392;SDS011;31129;44.810;10.334;2023-08-31T12:07:18;5.72;;;2.22;;
45392;SDS011;31129;44.810;10.334;2023-08-31T12:09:44;4.18;;;2.13;;
45392;SDS011;31129;44.810;10.334;2023-08-31T12:12:10;3.97;;;1.73;;
45392;SDS011;31129;44.810;10.334;2023-08-31T12:14:38;4.90;;;1.77;;
45392;SDS011;31129;44.810;10.334;2023-08-31T12:17:05;5.50;;;1.80;;
45392;SDS011;31129;44.810;10.334;2023-08-31T12:19:32;5.38;;;1.77;;
45392;SDS011;31129;44.810;10.334;2023-08-31T12:22:01;5.10;;;1.88;;
45392;SDS011;31129;44.810;10.334;2023-08-31T12:24:26;7.47;;;1.80;;
45392;SDS011;31129;44.810;10.334;2023-08-31T12:26:52;10.95;;;1.80;;
45392;SDS011;31129;44.810;10.334;2023-08-31T12:29:21;5.80;;;2.13;;
45392;SDS011;31129;44.810;10.334;2023-08-31T12:31:50;4.72;;;1.67;;
45392;SDS011;31129;44.810;10.334;2023-08-31T12:34:15;5.40;;;1.70;;
45392;SDS011;31129;44.810;10.334;2023-08-31T12:36:41;5.25;;;1.70;;
45392;SDS011;31129;44.810;10.334;2023-08-31T12:39:07;10.93;;;3.30;;
45392;SDS011;31129;44.810;10.334;2023-08-31T12:41:35;6.05;;;2.00;;
45392;SDS011;31129;44.810;10.334;2023-08-31T12:44:05;8.63;;;2.33;;
45392;SDS011;31129;44.810;10.334;2023-08-31T12:46:31;4.30;;;1.80;;
45392;SDS011;31129;44.810;10.334;2023-08-31T12:48:58;9.05;;;2.20;;
45392;SDS011;31129;44.810;10.334;2023-08-31T12:51:25;7.78;;;2.08;;
45392;SDS011;31129;44.810;10.334;2023-08-31T12:53:50;7.45;;;2.33;;
45392;SDS011;31129;44.810;10.334;2023-08-31T12:56:16;9.45;;;2.35;;
45392;SDS011;31129;44.810;10.334;2023-08-31T12:58:50;5.63;;;1.88;;
45392;SDS011;31129;44.810;10.334;2023-08-31T13:01:16;8.40;;;2.30;;
45392;SDS011;31129;44.810;10.334;2023-08-31T13:03:43;7.35;;;2.30;;
45392;SDS011;31129;44.810;10.334;2023-08-31T13:06:09;8.43;;;2.33;;
45392;SDS011;31129;44.810;10.334;2023-08-31T13:08:35;7.90;;;2.05;;
45392;SDS011;31129;44.810;10.334;2023-08-31T13:11:00;8.20;;;2.17;;
45392;SDS011;31129;44.810;10.334;2023-08-31T13:13:26;10.27;;;2.35;;
45392;SDS011;31129;44.810;10.334;2023-08-31T13:15:51;10.32;;;2.45;;
45392;SDS011;31129;44.810;10.334;2023-08-31T13:18:17;9.38;;;1.95;;
45392;SDS011;31129;44.810;10.334;2023-08-31T13:20:52;7.40;;;2.63;;
45392;SDS011;31129;44.810;10.334;2023-08-31T13:23:18;7.95;;;2.25;;
45392;SDS011;31129;44.810;10.334;2023-08-31T13:25:44;6.20;;;1.95;;
45392;SDS011;31129;44.810;10.334;2023-08-31T13:28:10;10.73;;;2.38;;
45392;SDS011;31129;44.810;10.334;2023-08-31T13:30:36;5.55;;;1.92;;
45392;SDS011;31129;44.810;10.334;2023-08-31T13:33:01;7.20;;;2.08;;
45392;SDS011;31129;44.810;10.334;2023-08-31T13:35:29;8.50;;;1.95;;
45392;SDS011;31129;44.810;10.334;2023-08-31T13:37:55;4.18;;;1.75;;
45392;SDS011;31129;44.810;10.334;2023-08-31T13:40:21;8.07;;;2.13;;
45392;SDS011;31129;44.810;10.334;2023-08-31T13:42:57;4.65;;;1.75;;
45392;SDS011;31129;44.810;10.334;2023-08-31T13:45:26;6.18;;;1.75;;
45392;SDS011;31129;44.810;10.334;2023-08-31T13:47:52;5.72;;;1.67;;
45392;SDS011;31129;44.810;10.334;2023-08-31T13:50:18;5.68;;;2.08;;
45392;SDS011;31129;44.810;10.334;2023-08-31T13:52:44;5.32;;;1.83;;
45392;SDS011;31129;44.810;10.334;2023-08-31T13:55:10;4.20;;;1.95;;
45392;SDS011;31129;44.810;10.334;2023-08-31T13:57:36;6.45;;;1.85;;
45392;SDS011;31129;44.810;10.334;2023-08-31T14:00:02;6.57;;;1.88;;
45392;SDS011;31129;44.810;10.334;2023-08-31T14:02:35;10.27;;;2.50;;
45392;SDS011;31129;44.810;10.334;2023-08-31T14:05:02;6.47;;;2.00;;
45392;SDS011;31129;44.810;10.334;2023-08-31T14:07:34;6.97;;;1.80;;
45392;SDS011;31129;44.810;10.334;2023-08-31T14:10:00;3.63;;;1.70;;
45392;SDS011;31129;44.810;10.334;2023-08-31T14:12:26;7.85;;;2.45;;
45392;SDS011;31129;44.810;10.334;2023-08-31T14:14:52;5.97;;;2.20;;
45392;SDS011;31129;44.810;10.334;2023-08-31T14:17:18;4.93;;;1.70;;
45392;SDS011;31129;44.810;10.334;2023-08-31T14:19:44;6.95;;;2.08;;
45392;SDS011;31129;44.810;10.334;2023-08-31T14:22:09;4.65;;;2.00;;
45392;SDS011;31129;44.810;10.334;2023-08-31T14:24:35;6.47;;;1.77;;
45392;SDS011;31129;44.810;10.334;2023-08-31T14:27:04;5.88;;;1.92;;
45392;SDS011;31129;44.810;10.334;2023-08-31T14:29:30;5.75;;;2.00;;
45392;SDS011;31129;44.810;10.334;2023-08-31T14:31:55;6.30;;;1.92;;
45392;SDS011;31129;44.810;10.334;2023-08-31T14:34:21;3.97;;;1.63;;
45392;SDS011;31129;44.810;10.334;2023-08-31T14:36:47;7.38;;;1.92;;
45392;SDS011;31129;44.810;10.334;2023-08-31T14:39:13;9.43;;;1.83;;
45392;SDS011;31129;44.810;10.334;2023-08-31T14:41:40;5.67;;;2.00;;
45392;SDS011;31129;44.810;10.334;2023-08-31T14:44:06;4.55;;;1.90;;
45392;SDS011;31129;44.810;10.334;2023-08-31T14:46:31;9.57;;;2.00;;
45392;SDS011;31129;44.810;10.334;2023-08-31T14:48:57;6.25;;;2.28;;
45392;SDS011;31129;44.810;10.334;2023-08-31T14:51:22;4.65;;;1.83;;
45392;SDS011;31129;44.810;10.334;2023-08-31T14:53:48;8.23;;;2.00;;
45392;SDS011;31129;44.810;10.334;2023-08-31T14:56:13;3.90;;;2.03;;
45392;SDS011;31129;44.810;10.334;2023-08-31T14:58:39;3.83;;;1.60;;